Terminal Aerodrome Forecast
Issued by NWS

Home | Current Version | Previous Version | Text Only | Print | Product List | Glossary On
Versions: 1 2 3 4 5 6 7 8 9 10 11 12 13 14 15 16 17
000
FTUS42 KMLB 310259 AAC
TAFSFB
TAF AMD
KSFB 310259Z 3103/3124 18007KT P6SM VCTS FEW070CB OVC110
      TEMPO 3103/3105 5SM -TSRA BKN060CB
     FM310600 20002KT P6SM FEW010 SCT250
     FM311400 26005KT P6SM SCT035
     FM312000 25005KT P6SM VCTS SCT035CB BKN250=

USA.gov is the U.S. government's official web portal to all federal, state and local government web resources and services.